sensor_id;sensor_type;location;lat;lon;timestamp;pressure;altitude;pressure_sealevel;temperature;humidity
38718;BME280;24468;52.128;9.278;2024-02-21T00:01:42;101267.47;;;9.89;100.00
38718;BME280;24468;52.128;9.278;2024-02-21T00:04:07;101256.47;;;9.96;100.00
38718;BME280;24468;52.128;9.278;2024-02-21T00:06:33;101264.78;;;9.89;100.00
38718;BME280;24468;52.128;9.278;2024-02-21T00:08:59;101265.94;;;10.10;100.00
38718;BME280;24468;52.128;9.278;2024-02-21T00:11:24;101259.84;;;10.03;100.00
38718;BME280;24468;52.128;9.278;2024-02-21T00:13:50;101262.31;;;9.50;100.00
38718;BME280;24468;52.128;9.278;2024-02-21T00:16:18;101262.19;;;9.86;100.00
38718;BME280;24468;52.128;9.278;2024-02-21T00:18:44;101260.84;;;9.71;100.00
38718;BME280;24468;52.128;9.278;2024-02-21T00:21:09;101257.22;;;9.41;100.00
38718;BME280;24468;52.128;9.278;2024-02-21T00:23:40;101252.50;;;9.49;100.00
38718;BME280;24468;52.128;9.278;2024-02-21T00:26:06;101256.47;;;9.34;100.00
38718;BME280;24468;52.128;9.278;2024-02-21T00:28:33;101255.13;;;9.50;100.00
38718;BME280;24468;52.128;9.278;2024-02-21T00:30:58;101236.06;;;9.88;100.00
38718;BME280;24468;52.128;9.278;2024-02-21T00:33:24;101225.28;;;9.88;100.00
38718;BME280;24468;52.128;9.278;2024-02-21T00:35:49;101228.41;;;9.43;100.00
38718;BME280;24468;52.128;9.278;2024-02-21T00:38:15;101224.13;;;9.65;100.00
38718;BME280;24468;52.128;9.278;2024-02-21T00:40:41;101220.31;;;9.43;100.00
38718;BME280;24468;52.128;9.278;2024-02-21T00:43:07;101229.09;;;9.80;100.00
38718;BME280;24468;52.128;9.278;2024-02-21T00:45:33;101220.16;;;9.49;100.00
38718;BME280;24468;52.128;9.278;2024-02-21T00:47:58;101198.44;;;9.85;100.00
38718;BME280;24468;52.128;9.278;2024-02-21T00:50:24;101210.88;;;9.89;100.00
38718;BME280;24468;52.128;9.278;2024-02-21T00:52:49;101203.50;;;9.66;100.00
38718;BME280;24468;52.128;9.278;2024-02-21T00:55:15;101199.50;;;9.49;100.00
38718;BME280;24468;52.128;9.278;2024-02-21T00:57:40;101201.31;;;9.49;100.00
38718;BME280;24468;52.128;9.278;2024-02-21T01:00:06;101187.00;;;9.47;100.00
38718;BME280;24468;52.128;9.278;2024-02-21T01:02:33;101187.66;;;9.55;100.00
38718;BME280;24468;52.128;9.278;2024-02-21T01:04:59;101192.38;;;9.47;100.00
38718;BME280;24468;52.128;9.278;2024-02-21T01:07:24;101179.38;;;9.91;100.00
38718;BME280;24468;52.128;9.278;2024-02-21T01:09:50;101189.06;;;9.68;100.00
38718;BME280;24468;52.128;9.278;2024-02-21T01:12:17;101184.97;;;9.55;100.00
38718;BME280;24468;52.128;9.278;2024-02-21T01:14:42;101200.66;;;9.70;100.00
38718;BME280;24468;52.128;9.278;2024-02-21T01:17:08;101189.84;;;10.00;100.00
38718;BME280;24468;52.128;9.278;2024-02-21T01:19:33;101181.22;;;9.59;100.00
38718;BME280;24468;52.128;9.278;2024-02-21T01:21:59;101175.41;;;9.73;100.00
38718;BME280;24468;52.128;9.278;2024-02-21T01:24:24;101171.28;;;9.61;100.00
38718;BME280;24468;52.128;9.278;2024-02-21T01:26:50;101178.28;;;9.68;100.00
38718;BME280;24468;52.128;9.278;2024-02-21T01:29:15;101168.50;;;9.94;100.00
38718;BME280;24468;52.128;9.278;2024-02-21T01:31:41;101159.59;;;10.18;100.00
38718;BME280;24468;52.128;9.278;2024-02-21T01:34:06;101166.16;;;9.82;100.00
38718;BME280;24468;52.128;9.278;2024-02-21T01:36:32;101169.69;;;9.84;100.00
38718;BME280;24468;52.128;9.278;2024-02-21T01:38:58;101155.94;;;9.93;100.00
38718;BME280;24468;52.128;9.278;2024-02-21T01:41:23;101163.66;;;10.03;100.00
38718;BME280;24468;52.128;9.278;2024-02-21T01:43:49;101162.47;;;9.56;100.00
38718;BME280;24468;52.128;9.278;2024-02-21T01:46:15;101161.03;;;9.74;100.00
38718;BME280;24468;52.128;9.278;2024-02-21T01:48:41;101167.41;;;9.71;100.00
38718;BME280;24468;52.128;9.278;2024-02-21T01:51:06;101163.41;;;9.85;100.00
38718;BME280;24468;52.128;9.278;2024-02-21T01:53:39;101161.88;;;10.04;100.00
38718;BME280;24468;52.128;9.278;2024-02-21T01:56:08;101150.84;;;9.84;100.00
38718;BME280;24468;52.128;9.278;2024-02-21T01:58:37;101146.19;;;9.89;100.00
38718;BME280;24468;52.128;9.278;2024-02-21T02:01:03;101144.31;;;10.19;100.00
38718;BME280;24468;52.128;9.278;2024-02-21T02:03:29;101134.41;;;10.19;100.00
38718;BME280;24468;52.128;9.278;2024-02-21T02:05:55;101137.03;;;10.49;100.00
38718;BME280;24468;52.128;9.278;2024-02-21T02:08:21;101139.22;;;10.10;100.00
38718;BME280;24468;52.128;9.278;2024-02-21T02:10:48;101126.59;;;10.38;100.00
38718;BME280;24468;52.128;9.278;2024-02-21T02:13:13;101133.41;;;10.22;100.00
38718;BME280;24468;52.128;9.278;2024-02-21T02:15:41;101140.03;;;10.12;100.00
38718;BME280;24468;52.128;9.278;2024-02-21T02:18:07;101123.75;;;10.43;100.00
38718;BME280;24468;52.128;9.278;2024-02-21T02:20:34;101111.91;;;10.47;100.00
38718;BME280;24468;52.128;9.278;2024-02-21T02:23:10;101102.56;;;10.57;100.00
38718;BME280;24468;52.128;9.278;2024-02-21T02:25:36;101105.44;;;9.98;100.00
38718;BME280;24468;52.128;9.278;2024-02-21T02:28:08;101107.31;;;10.51;100.00
38718;BME280;24468;52.128;9.278;2024-02-21T02:30:35;101102.72;;;10.26;100.00
38718;BME280;24468;52.128;9.278;2024-02-21T02:33:05;101100.78;;;10.03;100.00
38718;BME280;24468;52.128;9.278;2024-02-21T02:35:32;101100.22;;;10.20;100.00
38718;BME280;24468;52.128;9.278;2024-02-21T02:37:58;101101.94;;;10.22;100.00
38718;BME280;24468;52.128;9.278;2024-02-21T02:40:24;101100.59;;;10.09;100.00
38718;BME280;24468;52.128;9.278;2024-02-21T02:42:50;101100.41;;;10.15;100.00
38718;BME280;24468;52.128;9.278;2024-02-21T02:45:17;101094.47;;;10.32;100.00
38718;BME280;24468;52.128;9.278;2024-02-21T02:47:46;101084.44;;;10.09;100.00
38718;BME280;24468;52.128;9.278;2024-02-21T02:50:13;101071.13;;;9.76;100.00
38718;BME280;24468;52.128;9.278;2024-02-21T02:52:38;101074.63;;;9.78;100.00
38718;BME280;24468;52.128;9.278;2024-02-21T02:55:05;101070.69;;;9.90;100.00
38718;BME280;24468;52.128;9.278;2024-02-21T02:57:31;101066.34;;;9.28;100.00
38718;BME280;24468;52.128;9.278;2024-02-21T02:59:57;101065.66;;;9.79;100.00
38718;BME280;24468;52.128;9.278;2024-02-21T03:02:23;101060.09;;;9.84;100.00
38718;BME280;24468;52.128;9.278;2024-02-21T03:04:49;101061.28;;;9.47;100.00
38718;BME280;24468;52.128;9.278;2024-02-21T03:07:15;101053.97;;;9.51;100.00
38718;BME280;24468;52.128;9.278;2024-02-21T03:09:41;101039.59;;;9.52;100.00
38718;BME280;24468;52.128;9.278;2024-02-21T03:12:09;101035.22;;;9.48;100.00
38718;BME280;24468;52.128;9.278;2024-02-21T03:14:35;101030.91;;;9.42;100.00
38718;BME280;24468;52.128;9.278;2024-02-21T03:17:01;101025.00;;;9.31;100.00
38718;BME280;24468;52.128;9.278;2024-02-21T03:19:27;101012.78;;;9.49;100.00
38718;BME280;24468;52.128;9.278;2024-02-21T03:21:53;101008.16;;;9.24;100.00
38718;BME280;24468;52.128;9.278;2024-02-21T03:24:19;101006.06;;;9.34;100.00
38718;BME280;24468;52.128;9.278;2024-02-21T03:26:46;101004.94;;;9.41;100.00
38718;BME280;24468;52.128;9.278;2024-02-21T03:29:14;100999.88;;;9.30;100.00
38718;BME280;24468;52.128;9.278;2024-02-21T03:31:41;100997.31;;;9.27;100.00
38718;BME280;24468;52.128;9.278;2024-02-21T03:34:06;100987.63;;;9.20;100.00
38718;BME280;24468;52.128;9.278;2024-02-21T03:36:32;100977.69;;;8.94;100.00
38718;BME280;24468;52.128;9.278;2024-02-21T03:38:58;100994.13;;;9.13;100.00
38718;BME280;24468;52.128;9.278;2024-02-21T03:41:23;100987.97;;;9.38;100.00
38718;BME280;24468;52.128;9.278;2024-02-21T03:43:49;100981.69;;;9.39;100.00
38718;BME280;24468;52.128;9.278;2024-02-21T03:46:15;100998.19;;;9.28;100.00
38718;BME280;24468;52.128;9.278;2024-02-21T03:48:40;100982.13;;;9.25;100.00
38718;BME280;24468;52.128;9.278;2024-02-21T03:51:06;100991.06;;;9.25;100.00
38718;BME280;24468;52.128;9.278;2024-02-21T03:53:32;100992.56;;;9.35;100.00
38718;BME280;24468;52.128;9.278;2024-02-21T03:56:01;100989.97;;;9.32;100.00
38718;BME280;24468;52.128;9.278;2024-02-21T03:58:29;100986.44;;;9.30;100.00
38718;BME280;24468;52.128;9.278;2024-02-21T04:00:55;101004.00;;;9.14;100.00
38718;BME280;24468;52.128;9.278;2024-02-21T04:03:21;101004.72;;;9.19;100.00
38718;BME280;24468;52.128;9.278;2024-02-21T04:05:46;101006.28;;;9.26;100.00
38718;BME280;24468;52.128;9.278;2024-02-21T04:08:12;101013.19;;;9.63;100.00
38718;BME280;24468;52.128;9.278;2024-02-21T04:10:37;101009.66;;;9.61;100.00
38718;BME280;24468;52.128;9.278;2024-02-21T04:13:05;101008.53;;;9.40;100.00
38718;BME280;24468;52.128;9.278;2024-02-21T04:15:31;101015.38;;;9.52;100.00
38718;BME280;24468;52.128;9.278;2024-02-21T04:17:57;101023.28;;;9.28;100.00
38718;BME280;24468;52.128;9.278;2024-02-21T04:20:22;101017.56;;;9.39;100.00
38718;BME280;24468;52.128;9.278;2024-02-21T04:22:48;101014.38;;;9.26;100.00
38718;BME280;24468;52.128;9.278;2024-02-21T04:25:14;100997.97;;;9.34;100.00
38718;BME280;24468;52.128;9.278;2024-02-21T04:27:40;101002.97;;;9.46;100.00
38718;BME280;24468;52.128;9.278;2024-02-21T04:30:07;101009.19;;;9.20;100.00
38718;BME280;24468;52.128;9.278;2024-02-21T04:32:33;101005.53;;;9.21;100.00
38718;BME280;24468;52.128;9.278;2024-02-21T04:34:58;101014.00;;;9.09;100.00
38718;BME280;24468;52.128;9.278;2024-02-21T04:37:24;101009.47;;;9.11;100.00
38718;BME280;24468;52.128;9.278;2024-02-21T04:39:50;100999.59;;;9.40;100.00
38718;BME280;24468;52.128;9.278;2024-02-21T04:42:16;101013.25;;;9.33;100.00
38718;BME280;24468;52.128;9.278;2024-02-21T04:44:41;101007.31;;;9.22;100.00
38718;BME280;24468;52.128;9.278;2024-02-21T04:47:07;101005.91;;;9.10;100.00
38718;BME280;24468;52.128;9.278;2024-02-21T04:49:33;100998.94;;;9.31;100.00
38718;BME280;24468;52.128;9.278;2024-02-21T04:51:59;100995.03;;;9.13;100.00
38718;BME280;24468;52.128;9.278;2024-02-21T04:54:25;100996.88;;;9.40;100.00
38718;BME280;24468;52.128;9.278;2024-02-21T04:56:51;101008.09;;;9.54;100.00
38718;BME280;24468;52.128;9.278;2024-02-21T04:59:17;100998.69;;;9.41;100.00
38718;BME280;24468;52.128;9.278;2024-02-21T05:01:42;100997.94;;;9.35;100.00
38718;BME280;24468;52.128;9.278;2024-02-21T05:04:08;100996.78;;;9.15;100.00
38718;BME280;24468;52.128;9.278;2024-02-21T05:06:40;101002.16;;;9.16;100.00
38718;BME280;24468;52.128;9.278;2024-02-21T05:09:07;101010.28;;;9.13;100.00
38718;BME280;24468;52.128;9.278;2024-02-21T05:11:37;100978.06;;;8.82;100.00
38718;BME280;24468;52.128;9.278;2024-02-21T05:14:05;100972.22;;;8.67;100.00
38718;BME280;24468;52.128;9.278;2024-02-21T05:16:32;100995.63;;;8.94;100.00
38718;BME280;24468;52.128;9.278;2024-02-21T05:18:57;100970.41;;;8.68;100.00
38718;BME280;24468;52.128;9.278;2024-02-21T05:21:23;100981.91;;;8.73;100.00
38718;BME280;24468;52.128;9.278;2024-02-21T05:23:50;100991.56;;;8.80;100.00
38718;BME280;24468;52.128;9.278;2024-02-21T05:26:28;100975.59;;;8.74;100.00
38718;BME280;24468;52.128;9.278;2024-02-21T05:28:53;100964.38;;;8.60;100.00
38718;BME280;24468;52.128;9.278;2024-02-21T05:31:19;100958.06;;;8.61;100.00
38718;BME280;24468;52.128;9.278;2024-02-21T05:33:46;100968.38;;;8.76;100.00
38718;BME280;24468;52.128;9.278;2024-02-21T05:36:12;100981.34;;;8.62;100.00
38718;BME280;24468;52.128;9.278;2024-02-21T05:38:38;100962.97;;;8.76;100.00
38718;BME280;24468;52.128;9.278;2024-02-21T05:41:04;100975.00;;;8.64;100.00
38718;BME280;24468;52.128;9.278;2024-02-21T05:43:29;100966.19;;;8.59;100.00
38718;BME280;24468;52.128;9.278;2024-02-21T05:45:55;100948.63;;;8.48;100.00
38718;BME280;24468;52.128;9.278;2024-02-21T05:48:22;100944.84;;;8.53;100.00
38718;BME280;24468;52.128;9.278;2024-02-21T05:50:47;100947.63;;;8.50;100.00
38718;BME280;24468;52.128;9.278;2024-02-21T05:53:13;100938.63;;;8.51;100.00
38718;BME280;24468;52.128;9.278;2024-02-21T05:55:39;100940.19;;;8.58;100.00
38718;BME280;24468;52.128;9.278;2024-02-21T05:58:04;100933.84;;;8.61;100.00
38718;BME280;24468;52.128;9.278;2024-02-21T06:00:32;100949.06;;;8.62;100.00
38718;BME280;24468;52.128;9.278;2024-02-21T06:02:57;100940.59;;;8.44;100.00
38718;BME280;24468;52.128;9.278;2024-02-21T06:05:23;100939.38;;;8.56;100.00
38718;BME280;24468;52.128;9.278;2024-02-21T06:07:49;100938.28;;;8.31;100.00
38718;BME280;24468;52.128;9.278;2024-02-21T06:10:14;100935.75;;;8.57;100.00
38718;BME280;24468;52.128;9.278;2024-02-21T06:12:40;100924.56;;;8.41;100.00
38718;BME280;24468;52.128;9.278;2024-02-21T06:15:06;100946.41;;;8.29;100.00
38718;BME280;24468;52.128;9.278;2024-02-21T06:17:32;100924.78;;;8.34;100.00
38718;BME280;24468;52.128;9.278;2024-02-21T06:19:57;100952.19;;;8.46;100.00
38718;BME280;24468;52.128;9.278;2024-02-21T06:22:23;100929.44;;;8.58;100.00
38718;BME280;24468;52.128;9.278;2024-02-21T06:24:48;100939.00;;;8.68;100.00
38718;BME280;24468;52.128;9.278;2024-02-21T06:27:14;100941.03;;;8.60;100.00
38718;BME280;24468;52.128;9.278;2024-02-21T06:29:41;100936.50;;;8.62;100.00
38718;BME280;24468;52.128;9.278;2024-02-21T06:32:07;100946.53;;;8.87;100.00
38718;BME280;24468;52.128;9.278;2024-02-21T06:34:33;100925.88;;;8.58;100.00
38718;BME280;24468;52.128;9.278;2024-02-21T06:36:58;100920.56;;;8.56;100.00
38718;BME280;24468;52.128;9.278;2024-02-21T06:39:24;100931.72;;;8.42;100.00
38718;BME280;24468;52.128;9.278;2024-02-21T06:41:50;100920.38;;;8.62;100.00
38718;BME280;24468;52.128;9.278;2024-02-21T06:44:19;100915.94;;;8.61;100.00
38718;BME280;24468;52.128;9.278;2024-02-21T06:46:44;100913.16;;;8.63;100.00
38718;BME280;24468;52.128;9.278;2024-02-21T06:49:10;100928.78;;;8.80;100.00
38718;BME280;24468;52.128;9.278;2024-02-21T06:51:44;100927.13;;;8.76;100.00
38718;BME280;24468;52.128;9.278;2024-02-21T06:54:10;100914.84;;;8.67;100.00
38718;BME280;24468;52.128;9.278;2024-02-21T06:56:37;100926.59;;;8.64;100.00
38718;BME280;24468;52.128;9.278;2024-02-21T06:59:03;100924.41;;;8.48;100.00
38718;BME280;24468;52.128;9.278;2024-02-21T07:01:30;100916.72;;;8.65;100.00
38718;BME280;24468;52.128;9.278;2024-02-21T07:03:56;100918.78;;;8.55;100.00
38718;BME280;24468;52.128;9.278;2024-02-21T07:06:22;100911.09;;;8.73;100.00
38718;BME280;24468;52.128;9.278;2024-02-21T07:08:48;100905.94;;;8.65;100.00
38718;BME280;24468;52.128;9.278;2024-02-21T07:11:13;100900.13;;;8.79;100.00
38718;BME280;24468;52.128;9.278;2024-02-21T07:13:39;100904.44;;;8.84;100.00
38718;BME280;24468;52.128;9.278;2024-02-21T07:16:06;100897.56;;;8.46;100.00
38718;BME280;24468;52.128;9.278;2024-02-21T07:18:31;100899.06;;;8.55;100.00
38718;BME280;24468;52.128;9.278;2024-02-21T07:20:57;100891.63;;;8.64;100.00
38718;BME280;24468;52.128;9.278;2024-02-21T07:23:24;100894.72;;;8.80;100.00
38718;BME280;24468;52.128;9.278;2024-02-21T07:25:49;100898.63;;;8.70;100.00
38718;BME280;24468;52.128;9.278;2024-02-21T07:28:15;100900.91;;;8.82;100.00
38718;BME280;24468;52.128;9.278;2024-02-21T07:30:41;100914.44;;;8.81;100.00
38718;BME280;24468;52.128;9.278;2024-02-21T07:33:07;100911.75;;;8.81;100.00
38718;BME280;24468;52.128;9.278;2024-02-21T07:35:33;100915.16;;;8.86;100.00
38718;BME280;24468;52.128;9.278;2024-02-21T07:37:58;100920.81;;;9.05;100.00
38718;BME280;24468;52.128;9.278;2024-02-21T07:40:24;100914.09;;;8.92;100.00
38718;BME280;24468;52.128;9.278;2024-02-21T07:42:49;100923.63;;;9.02;100.00
38718;BME280;24468;52.128;9.278;2024-02-21T07:45:15;100927.69;;;9.15;100.00
38718;BME280;24468;52.128;9.278;2024-02-21T07:47:40;100935.97;;;8.79;100.00
38718;BME280;24468;52.128;9.278;2024-02-21T07:50:08;100922.53;;;9.07;100.00
38718;BME280;24468;52.128;9.278;2024-02-21T07:52:34;100934.16;;;9.09;100.00
38718;BME280;24468;52.128;9.278;2024-02-21T07:54:59;100933.31;;;9.35;100.00
38718;BME280;24468;52.128;9.278;2024-02-21T07:57:25;100929.44;;;9.44;100.00
38718;BME280;24468;52.128;9.278;2024-02-21T07:59:50;100941.19;;;9.42;100.00
38718;BME280;24468;52.128;9.278;2024-02-21T08:02:16;100939.44;;;9.41;100.00
38718;BME280;24468;52.128;9.278;2024-02-21T08:04:42;100934.69;;;9.21;100.00
38718;BME280;24468;52.128;9.278;2024-02-21T08:07:09;100926.22;;;9.33;100.00
38718;BME280;24468;52.128;9.278;2024-02-21T08:09:35;100930.44;;;9.40;100.00
38718;BME280;24468;52.128;9.278;2024-02-21T08:12:04;100935.19;;;9.32;100.00
38718;BME280;24468;52.128;9.278;2024-02-21T08:14:29;100923.28;;;9.12;100.00
38718;BME280;24468;52.128;9.278;2024-02-21T08:16:55;100935.22;;;9.58;100.00
38718;BME280;24468;52.128;9.278;2024-02-21T08:19:21;100920.97;;;9.28;100.00
38718;BME280;24468;52.128;9.278;2024-02-21T08:21:50;100913.28;;;9.44;100.00
38718;BME280;24468;52.128;9.278;2024-02-21T08:24:16;100918.94;;;9.62;100.00
38718;BME280;24468;52.128;9.278;2024-02-21T08:26:42;100917.69;;;9.72;100.00
38718;BME280;24468;52.128;9.278;2024-02-21T08:29:08;100917.66;;;9.47;100.00
38718;BME280;24468;52.128;9.278;2024-02-21T08:31:33;100910.88;;;9.62;100.00
38718;BME280;24468;52.128;9.278;2024-02-21T08:34:00;100909.50;;;9.75;100.00
38718;BME280;24468;52.128;9.278;2024-02-21T08:36:30;100891.81;;;9.93;100.00
38718;BME280;24468;52.128;9.278;2024-02-21T08:38:57;100901.91;;;9.86;100.00
38718;BME280;24468;52.128;9.278;2024-02-21T08:41:24;100888.78;;;10.02;100.00
38718;BME280;24468;52.128;9.278;2024-02-21T08:43:53;100882.59;;;10.23;100.00
38718;BME280;24468;52.128;9.278;2024-02-21T08:46:28;100885.03;;;9.81;100.00
38718;BME280;24468;52.128;9.278;2024-02-21T08:48:54;100883.53;;;9.97;100.00
38718;BME280;24468;52.128;9.278;2024-02-21T08:51:20;100878.13;;;10.22;100.00
38718;BME280;24468;52.128;9.278;2024-02-21T08:53:47;100884.09;;;10.07;100.00
38718;BME280;24468;52.128;9.278;2024-02-21T08:56:13;100879.78;;;10.50;100.00
38718;BME280;24468;52.128;9.278;2024-02-21T08:58:41;100860.59;;;10.11;100.00
38718;BME280;24468;52.128;9.278;2024-02-21T09:01:07;100854.34;;;10.57;100.00
38718;BME280;24468;52.128;9.278;2024-02-21T09:03:37;100856.63;;;10.68;100.00
38718;BME280;24468;52.128;9.278;2024-02-21T09:06:04;100856.44;;;10.73;100.00
38718;BME280;24468;52.128;9.278;2024-02-21T09:08:29;100855.13;;;11.05;100.00
38718;BME280;24468;52.128;9.278;2024-02-21T09:10:55;100850.13;;;10.50;100.00
38718;BME280;24468;52.128;9.278;2024-02-21T09:13:21;100854.97;;;10.64;100.00
38718;BME280;24468;52.128;9.278;2024-02-21T09:15:47;100860.50;;;10.83;100.00
38718;BME280;24468;52.128;9.278;2024-02-21T09:18:14;100859.53;;;10.40;100.00
38718;BME280;24468;52.128;9.278;2024-02-21T09:20:40;100848.47;;;10.70;100.00
38718;BME280;24468;52.128;9.278;2024-02-21T09:23:07;100852.22;;;10.65;100.00
38718;BME280;24468;52.128;9.278;2024-02-21T09:25:33;100857.22;;;10.53;100.00
38718;BME280;24468;52.128;9.278;2024-02-21T09:28:01;100845.13;;;10.63;100.00
38718;BME280;24468;52.128;9.278;2024-02-21T09:30:27;100845.72;;;10.93;100.00
38718;BME280;24468;52.128;9.278;2024-02-21T09:32:52;100839.97;;;11.23;100.00
38718;BME280;24468;52.128;9.278;2024-02-21T09:35:18;100830.44;;;11.14;100.00
38718;BME280;24468;52.128;9.278;2024-02-21T09:37:44;100831.53;;;10.88;100.00
38718;BME280;24468;52.128;9.278;2024-02-21T09:40:09;100831.34;;;11.35;100.00
38718;BME280;24468;52.128;9.278;2024-02-21T09:42:41;100821.09;;;11.43;100.00
38718;BME280;24468;52.128;9.278;2024-02-21T09:45:20;100831.63;;;11.07;100.00
38718;BME280;24468;52.128;9.278;2024-02-21T09:48:19;100834.84;;;10.51;100.00
38718;BME280;24468;52.128;9.278;2024-02-21T09:50:51;100831.25;;;10.50;100.00
38718;BME280;24468;52.128;9.278;2024-02-21T09:53:18;100833.22;;;10.68;100.00
38718;BME280;24468;52.128;9.278;2024-02-21T09:55:45;100830.50;;;11.12;100.00
38718;BME280;24468;52.128;9.278;2024-02-21T09:58:12;100830.78;;;10.62;100.00
38718;BME280;24468;52.128;9.278;2024-02-21T10:00:38;100827.56;;;10.75;100.00
38718;BME280;24468;52.128;9.278;2024-02-21T10:03:04;100814.97;;;10.75;100.00
38718;BME280;24468;52.128;9.278;2024-02-21T10:05:35;100813.66;;;11.28;100.00
38718;BME280;24468;52.128;9.278;2024-02-21T10:08:01;100807.75;;;10.98;100.00
38718;BME280;24468;52.128;9.278;2024-02-21T10:10:27;100808.94;;;10.90;100.00
38718;BME280;24468;52.128;9.278;2024-02-21T10:12:56;100805.19;;;10.73;100.00
38718;BME280;24468;52.128;9.278;2024-02-21T10:15:22;100796.66;;;10.83;100.00
38718;BME280;24468;52.128;9.278;2024-02-21T10:17:49;100791.31;;;11.45;100.00
38718;BME280;24468;52.128;9.278;2024-02-21T10:20:15;100778.31;;;11.32;100.00
38718;BME280;24468;52.128;9.278;2024-02-21T10:22:42;100784.34;;;11.60;100.00
38718;BME280;24468;52.128;9.278;2024-02-21T10:25:09;100767.34;;;11.17;100.00
38718;BME280;24468;52.128;9.278;2024-02-21T10:27:34;100778.88;;;11.41;100.00
38718;BME280;24468;52.128;9.278;2024-02-21T10:30:00;100768.75;;;11.46;100.00
38718;BME280;24468;52.128;9.278;2024-02-21T10:32:26;100767.28;;;11.78;100.00
38718;BME280;24468;52.128;9.278;2024-02-21T10:35:04;100749.97;;;11.43;100.00
38718;BME280;24468;52.128;9.278;2024-02-21T10:37:34;100762.84;;;10.95;100.00
38718;BME280;24468;52.128;9.278;2024-02-21T10:40:01;100754.91;;;11.12;100.00
38718;BME280;24468;52.128;9.278;2024-02-21T10:42:29;100741.94;;;11.21;100.00
38718;BME280;24468;52.128;9.278;2024-02-21T10:45:01;100745.19;;;11.08;100.00
38718;BME280;24468;52.128;9.278;2024-02-21T10:47:32;100739.78;;;11.49;100.00
38718;BME280;24468;52.128;9.278;2024-02-21T10:50:04;100740.56;;;11.10;100.00
38718;BME280;24468;52.128;9.278;2024-02-21T10:52:51;100743.72;;;11.22;100.00
38718;BME280;24468;52.128;9.278;2024-02-21T10:55:26;100737.16;;;11.27;100.00
38718;BME280;24468;52.128;9.278;2024-02-21T10:57:55;100751.38;;;11.10;100.00
38718;BME280;24468;52.128;9.278;2024-02-21T11:00:21;100731.41;;;11.35;100.00
38718;BME280;24468;52.128;9.278;2024-02-21T11:02:49;100733.66;;;11.65;100.00
38718;BME280;24468;52.128;9.278;2024-02-21T11:05:15;100731.00;;;11.24;100.00
38718;BME280;24468;52.128;9.278;2024-02-21T11:07:41;100704.78;;;10.85;100.00
38718;BME280;24468;52.128;9.278;2024-02-21T11:10:22;100714.44;;;10.90;100.00
38718;BME280;24468;52.128;9.278;2024-02-21T11:12:48;100706.56;;;11.06;100.00
38718;BME280;24468;52.128;9.278;2024-02-21T11:15:14;100695.91;;;11.03;100.00
38718;BME280;24468;52.128;9.278;2024-02-21T11:17:40;100702.19;;;11.64;100.00
38718;BME280;24468;52.128;9.278;2024-02-21T11:20:15;100705.16;;;11.18;100.00
38718;BME280;24468;52.128;9.278;2024-02-21T11:22:43;100690.16;;;11.31;100.00
38718;BME280;24468;52.128;9.278;2024-02-21T11:25:09;100675.56;;;11.35;100.00
38718;BME280;24468;52.128;9.278;2024-02-21T11:27:38;100692.22;;;11.45;100.00
38718;BME280;24468;52.128;9.278;2024-02-21T11:30:05;100675.03;;;11.67;100.00
38718;BME280;24468;52.128;9.278;2024-02-21T11:32:31;100692.53;;;10.98;100.00
38718;BME280;24468;52.128;9.278;2024-02-21T11:35:04;100679.03;;;10.98;100.00
38718;BME280;24468;52.128;9.278;2024-02-21T11:37:34;100681.06;;;11.53;100.00
38718;BME280;24468;52.128;9.278;2024-02-21T11:40:04;100675.03;;;11.27;100.00
38718;BME280;24468;52.128;9.278;2024-02-21T11:42:32;100659.06;;;11.42;100.00
38718;BME280;24468;52.128;9.278;2024-02-21T11:45:00;100659.66;;;11.88;100.00
38718;BME280;24468;52.128;9.278;2024-02-21T11:47:27;100654.47;;;11.63;100.00
38718;BME280;24468;52.128;9.278;2024-02-21T11:49:53;100644.94;;;11.74;100.00
38718;BME280;24468;52.128;9.278;2024-02-21T11:52:22;100645.19;;;11.30;100.00
38718;BME280;24468;52.128;9.278;2024-02-21T11:54:51;100636.72;;;11.57;100.00
38718;BME280;24468;52.128;9.278;2024-02-21T11:57:18;100629.78;;;11.51;100.00
38718;BME280;24468;52.128;9.278;2024-02-21T11:59:44;100620.66;;;11.35;100.00
38718;BME280;24468;52.128;9.278;2024-02-21T12:02:11;100624.53;;;11.48;100.00
38718;BME280;24468;52.128;9.278;2024-02-21T12:04:37;100604.41;;;11.55;100.00
38718;BME280;24468;52.128;9.278;2024-02-21T12:07:02;100597.31;;;11.91;100.00
38718;BME280;24468;52.128;9.278;2024-02-21T12:09:31;100601.19;;;11.85;100.00
38718;BME280;24468;52.128;9.278;2024-02-21T12:12:04;100595.50;;;11.91;100.00
38718;BME280;24468;52.128;9.278;2024-02-21T12:14:32;100589.56;;;12.02;100.00
38718;BME280;24468;52.128;9.278;2024-02-21T12:16:59;100581.81;;;11.56;100.00
38718;BME280;24468;52.128;9.278;2024-02-21T12:19:29;100581.66;;;11.60;100.00
38718;BME280;24468;52.128;9.278;2024-02-21T12:21:54;100585.84;;;11.67;100.00
38718;BME280;24468;52.128;9.278;2024-02-21T12:24:28;100581.66;;;11.97;100.00
38718;BME280;24468;52.128;9.278;2024-02-21T12:26:55;100566.72;;;11.71;100.00
38718;BME280;24468;52.128;9.278;2024-02-21T12:29:25;100573.66;;;11.77;100.00
38718;BME280;24468;52.128;9.278;2024-02-21T12:31:51;100568.53;;;12.43;100.00
38718;BME280;24468;52.128;9.278;2024-02-21T12:34:17;100570.66;;;12.19;100.00
38718;BME280;24468;52.128;9.278;2024-02-21T12:36:44;100570.25;;;12.44;100.00
38718;BME280;24468;52.128;9.278;2024-02-21T12:39:10;100563.38;;;12.02;100.00
38718;BME280;24468;52.128;9.278;2024-02-21T12:41:37;100565.00;;;12.24;100.00
38718;BME280;24468;52.128;9.278;2024-02-21T12:44:10;100557.44;;;11.96;100.00